Terminal Aerodrome Forecast
Issued by NWS Sioux Falls, SD

Home | Current Version | Previous Version | Graphics & Text | Print | Product List | Glossary On
Versions: 1 2 3 4 5 6 7 8 9 10 11 12 13 14 15 16 17 18 19 20 21 22 23 24 25 26 27
639
FTUS43 KFSD 041300 AAA
TAFFSD
TAF AMD
KFSD 041300Z 0413/0512 24007KT 5SM BR BKN004
     FM041400 26007KT P6SM SCT015 SCT150
     FM041600 26007KT P6SM SCT150
     FM050100 19005KT P6SM BKN200=

USA.gov is the U.S. government's official web portal to all federal, state and local government web resources and services.